SPHI/CIX METAR and TAF weather

Enter ICAO airport designator
Station Type Date Time Source
SPHI METAR 2021/08/04 23:00 UTC NOAA

SPHI 042300Z 21010KT CAVOK 21/14 Q1013 RMK BIRD HAZARD RWY 19/01 PP000


Station Type Date Time Source
SPHI Decoded METAR 2021/08/04 23:00 UTC NOAA

Chiclayo, Peru (SPHI) 06-47S 079-50W 34M
Aug 04, 2021 - 07:00 PM EDT / 2021.08.04 2300 UTC
Wind: from the SSW (210 degrees) at 12 MPH (10 KT):0
Visibility: greater than 7 mile(s):0
Temperature: 69 F (21 C)
Dew Point: 57 F (14 C)
Relative Humidity: 64%
Pressure (altimeter): 29.91 in. Hg (1013 hPa)
ob: SPHI 042300Z 21010KT CAVOK 21/14 Q1013 RMK BIRD HAZARD RWY 19/01 PP000
cycle: 23

Station Type Date Time Source
SPHI TAF 2021/08/04 18:42 UTC NOAA

TAF SPHI 042330Z 0418/0518 CNL

Example: see airport list